sensor_id;sensor_type;location;lat;lon;timestamp;P1;durP1;ratioP1;P2;durP2;ratioP2
18023;SDS011;9137;50.960;3.118;2022-07-18T00:02:12;2.92;;;2.55;;
18023;SDS011;9137;50.960;3.118;2022-07-18T00:04:40;3.55;;;2.85;;
18023;SDS011;9137;50.960;3.118;2022-07-18T00:07:07;4.03;;;2.83;;
18023;SDS011;9137;50.960;3.118;2022-07-18T00:09:35;4.43;;;2.70;;
18023;SDS011;9137;50.960;3.118;2022-07-18T00:12:03;3.70;;;2.70;;
18023;SDS011;9137;50.960;3.118;2022-07-18T00:14:31;3.10;;;2.80;;
18023;SDS011;9137;50.960;3.118;2022-07-18T00:16:58;3.77;;;2.83;;
18023;SDS011;9137;50.960;3.118;2022-07-18T00:19:25;3.33;;;2.50;;
18023;SDS011;9137;50.960;3.118;2022-07-18T00:21:54;3.85;;;2.90;;
18023;SDS011;9137;50.960;3.118;2022-07-18T00:24:21;3.28;;;2.60;;
18023;SDS011;9137;50.960;3.118;2022-07-18T00:26:48;4.10;;;2.88;;
18023;SDS011;9137;50.960;3.118;2022-07-18T00:29:15;4.57;;;2.88;;
18023;SDS011;9137;50.960;3.118;2022-07-18T00:31:42;6.38;;;2.65;;
18023;SDS011;9137;50.960;3.118;2022-07-18T00:34:09;3.47;;;2.90;;
18023;SDS011;9137;50.960;3.118;2022-07-18T00:36:36;4.00;;;2.90;;
18023;SDS011;9137;50.960;3.118;2022-07-18T00:39:04;3.95;;;2.95;;
18023;SDS011;9137;50.960;3.118;2022-07-18T00:41:31;3.53;;;2.93;;
18023;SDS011;9137;50.960;3.118;2022-07-18T00:43:58;3.55;;;2.83;;
18023;SDS011;9137;50.960;3.118;2022-07-18T00:46:25;3.60;;;2.80;;
18023;SDS011;9137;50.960;3.118;2022-07-18T00:48:53;3.90;;;2.67;;
18023;SDS011;9137;50.960;3.118;2022-07-18T00:51:20;3.88;;;3.20;;
18023;SDS011;9137;50.960;3.118;2022-07-18T00:53:49;4.43;;;2.67;;
18023;SDS011;9137;50.960;3.118;2022-07-18T00:56:18;3.45;;;3.15;;
18023;SDS011;9137;50.960;3.118;2022-07-18T00:58:47;3.83;;;2.92;;
18023;SDS011;9137;50.960;3.118;2022-07-18T01:01:14;3.00;;;2.70;;
18023;SDS011;9137;50.960;3.118;2022-07-18T01:03:58;3.37;;;2.67;;
18023;SDS011;9137;50.960;3.118;2022-07-18T01:06:25;3.28;;;2.78;;
18023;SDS011;9137;50.960;3.118;2022-07-18T01:08:52;3.33;;;2.70;;
18023;SDS011;9137;50.960;3.118;2022-07-18T01:11:20;3.00;;;2.50;;
18023;SDS011;9137;50.960;3.118;2022-07-18T01:13:47;3.88;;;2.85;;
18023;SDS011;9137;50.960;3.118;2022-07-18T01:16:14;3.55;;;2.95;;
18023;SDS011;9137;50.960;3.118;2022-07-18T01:18:43;3.58;;;2.67;;
18023;SDS011;9137;50.960;3.118;2022-07-18T01:21:13;4.45;;;3.53;;
18023;SDS011;9137;50.960;3.118;2022-07-18T01:23:40;4.00;;;3.20;;
18023;SDS011;9137;50.960;3.118;2022-07-18T01:26:07;3.65;;;3.10;;
18023;SDS011;9137;50.960;3.118;2022-07-18T01:28:35;3.65;;;2.90;;
18023;SDS011;9137;50.960;3.118;2022-07-18T01:31:02;5.07;;;2.83;;
18023;SDS011;9137;50.960;3.118;2022-07-18T01:33:30;4.20;;;3.08;;
18023;SDS011;9137;50.960;3.118;2022-07-18T01:35:57;3.50;;;3.20;;
18023;SDS011;9137;50.960;3.118;2022-07-18T01:38:26;5.78;;;3.50;;
18023;SDS011;9137;50.960;3.118;2022-07-18T01:40:54;4.07;;;3.40;;
18023;SDS011;9137;50.960;3.118;2022-07-18T01:43:21;4.00;;;3.35;;
18023;SDS011;9137;50.960;3.118;2022-07-18T01:45:48;4.33;;;3.10;;
18023;SDS011;9137;50.960;3.118;2022-07-18T01:48:15;3.47;;;3.17;;
18023;SDS011;9137;50.960;3.118;2022-07-18T01:50:42;4.07;;;3.33;;
18023;SDS011;9137;50.960;3.118;2022-07-18T01:53:09;3.70;;;3.00;;
18023;SDS011;9137;50.960;3.118;2022-07-18T01:55:37;3.87;;;2.90;;
18023;SDS011;9137;50.960;3.118;2022-07-18T01:58:04;6.10;;;3.30;;
18023;SDS011;9137;50.960;3.118;2022-07-18T02:00:31;5.78;;;3.58;;
18023;SDS011;9137;50.960;3.118;2022-07-18T02:02:58;4.63;;;3.20;;
18023;SDS011;9137;50.960;3.118;2022-07-18T02:05:25;5.10;;;3.17;;
18023;SDS011;9137;50.960;3.118;2022-07-18T02:07:52;4.05;;;3.20;;
18023;SDS011;9137;50.960;3.118;2022-07-18T02:10:20;4.07;;;3.08;;
18023;SDS011;9137;50.960;3.118;2022-07-18T02:12:48;3.85;;;3.00;;
18023;SDS011;9137;50.960;3.118;2022-07-18T02:15:15;4.07;;;3.35;;
18023;SDS011;9137;50.960;3.118;2022-07-18T02:17:43;4.38;;;3.10;;
18023;SDS011;9137;50.960;3.118;2022-07-18T02:20:10;4.82;;;3.50;;
18023;SDS011;9137;50.960;3.118;2022-07-18T02:22:39;4.57;;;3.50;;
18023;SDS011;9137;50.960;3.118;2022-07-18T02:25:06;5.47;;;3.38;;
18023;SDS011;9137;50.960;3.118;2022-07-18T02:27:34;5.45;;;3.20;;
18023;SDS011;9137;50.960;3.118;2022-07-18T02:30:02;4.47;;;3.30;;
18023;SDS011;9137;50.960;3.118;2022-07-18T02:32:30;3.78;;;3.38;;
18023;SDS011;9137;50.960;3.118;2022-07-18T02:34:56;4.80;;;3.20;;
18023;SDS011;9137;50.960;3.118;2022-07-18T02:37:23;3.47;;;3.17;;
18023;SDS011;9137;50.960;3.118;2022-07-18T02:39:50;4.13;;;3.30;;
18023;SDS011;9137;50.960;3.118;2022-07-18T02:42:17;3.40;;;3.10;;
18023;SDS011;9137;50.960;3.118;2022-07-18T02:44:44;4.40;;;3.10;;
18023;SDS011;9137;50.960;3.118;2022-07-18T02:47:12;5.57;;;3.22;;
18023;SDS011;9137;50.960;3.118;2022-07-18T02:49:39;5.03;;;3.47;;
18023;SDS011;9137;50.960;3.118;2022-07-18T02:52:07;3.33;;;2.83;;
18023;SDS011;9137;50.960;3.118;2022-07-18T02:54:35;3.55;;;3.13;;
18023;SDS011;9137;50.960;3.118;2022-07-18T02:57:03;5.47;;;3.33;;
18023;SDS011;9137;50.960;3.118;2022-07-18T02:59:30;3.97;;;3.20;;
18023;SDS011;9137;50.960;3.118;2022-07-18T03:01:58;5.50;;;2.97;;
18023;SDS011;9137;50.960;3.118;2022-07-18T03:04:26;5.28;;;3.45;;
18023;SDS011;9137;50.960;3.118;2022-07-18T03:06:53;4.25;;;3.22;;
18023;SDS011;9137;50.960;3.118;2022-07-18T03:09:20;4.80;;;3.28;;
18023;SDS011;9137;50.960;3.118;2022-07-18T03:11:48;3.73;;;3.23;;
18023;SDS011;9137;50.960;3.118;2022-07-18T03:14:15;3.92;;;3.00;;
18023;SDS011;9137;50.960;3.118;2022-07-18T03:16:42;3.63;;;3.15;;
18023;SDS011;9137;50.960;3.118;2022-07-18T03:19:09;3.53;;;3.20;;
18023;SDS011;9137;50.960;3.118;2022-07-18T03:21:37;3.45;;;3.15;;
18023;SDS011;9137;50.960;3.118;2022-07-18T03:24:04;5.53;;;3.40;;
18023;SDS011;9137;50.960;3.118;2022-07-18T03:26:31;5.60;;;3.92;;
18023;SDS011;9137;50.960;3.118;2022-07-18T03:28:58;4.85;;;3.15;;
18023;SDS011;9137;50.960;3.118;2022-07-18T03:31:25;4.23;;;3.47;;
18023;SDS011;9137;50.960;3.118;2022-07-18T03:33:52;4.70;;;3.13;;
18023;SDS011;9137;50.960;3.118;2022-07-18T03:36:19;5.15;;;3.40;;
18023;SDS011;9137;50.960;3.118;2022-07-18T03:38:47;4.30;;;3.13;;
18023;SDS011;9137;50.960;3.118;2022-07-18T03:41:14;3.95;;;3.33;;
18023;SDS011;9137;50.960;3.118;2022-07-18T03:43:41;4.18;;;3.70;;
18023;SDS011;9137;50.960;3.118;2022-07-18T03:46:08;4.90;;;3.53;;
18023;SDS011;9137;50.960;3.118;2022-07-18T03:48:35;3.63;;;3.15;;
18023;SDS011;9137;50.960;3.118;2022-07-18T03:51:02;3.88;;;3.47;;
18023;SDS011;9137;50.960;3.118;2022-07-18T03:53:29;6.77;;;4.27;;
18023;SDS011;9137;50.960;3.118;2022-07-18T03:55:58;5.07;;;3.60;;
18023;SDS011;9137;50.960;3.118;2022-07-18T03:58:25;3.78;;;3.45;;
18023;SDS011;9137;50.960;3.118;2022-07-18T04:00:52;4.05;;;3.65;;
18023;SDS011;9137;50.960;3.118;2022-07-18T04:03:19;4.73;;;3.60;;
18023;SDS011;9137;50.960;3.118;2022-07-18T04:05:46;4.78;;;3.83;;
18023;SDS011;9137;50.960;3.118;2022-07-18T04:08:13;4.28;;;3.50;;
18023;SDS011;9137;50.960;3.118;2022-07-18T04:10:40;5.72;;;3.83;;
18023;SDS011;9137;50.960;3.118;2022-07-18T04:13:09;4.13;;;3.50;;
18023;SDS011;9137;50.960;3.118;2022-07-18T04:15:37;4.10;;;3.40;;
18023;SDS011;9137;50.960;3.118;2022-07-18T04:18:04;7.63;;;4.43;;
18023;SDS011;9137;50.960;3.118;2022-07-18T04:20:33;5.25;;;3.70;;
18023;SDS011;9137;50.960;3.118;2022-07-18T04:23:01;4.80;;;3.72;;
18023;SDS011;9137;50.960;3.118;2022-07-18T04:25:33;5.30;;;3.53;;
18023;SDS011;9137;50.960;3.118;2022-07-18T04:28:01;4.82;;;3.70;;
18023;SDS011;9137;50.960;3.118;2022-07-18T04:30:30;5.68;;;4.00;;
18023;SDS011;9137;50.960;3.118;2022-07-18T04:32:57;5.77;;;3.73;;
18023;SDS011;9137;50.960;3.118;2022-07-18T04:35:27;7.15;;;4.47;;
18023;SDS011;9137;50.960;3.118;2022-07-18T04:37:54;5.05;;;3.75;;
18023;SDS011;9137;50.960;3.118;2022-07-18T04:40:21;6.43;;;4.00;;
18023;SDS011;9137;50.960;3.118;2022-07-18T04:42:48;4.90;;;3.97;;
18023;SDS011;9137;50.960;3.118;2022-07-18T04:45:15;6.53;;;4.07;;
18023;SDS011;9137;50.960;3.118;2022-07-18T04:47:47;5.15;;;3.90;;
18023;SDS011;9137;50.960;3.118;2022-07-18T04:50:15;4.78;;;4.28;;
18023;SDS011;9137;50.960;3.118;2022-07-18T04:52:43;6.93;;;4.70;;
18023;SDS011;9137;50.960;3.118;2022-07-18T04:55:12;7.25;;;4.30;;
18023;SDS011;9137;50.960;3.118;2022-07-18T04:57:40;4.63;;;3.83;;
18023;SDS011;9137;50.960;3.118;2022-07-18T05:00:09;6.00;;;4.05;;
18023;SDS011;9137;50.960;3.118;2022-07-18T05:02:38;6.57;;;4.22;;
18023;SDS011;9137;50.960;3.118;2022-07-18T05:05:08;6.28;;;4.35;;
18023;SDS011;9137;50.960;3.118;2022-07-18T05:07:36;6.28;;;4.38;;
18023;SDS011;9137;50.960;3.118;2022-07-18T05:10:04;6.53;;;4.20;;
18023;SDS011;9137;50.960;3.118;2022-07-18T05:12:32;6.30;;;4.63;;
18023;SDS011;9137;50.960;3.118;2022-07-18T05:15:00;6.03;;;4.50;;
18023;SDS011;9137;50.960;3.118;2022-07-18T05:17:27;4.93;;;4.35;;
18023;SDS011;9137;50.960;3.118;2022-07-18T05:19:54;7.03;;;4.13;;
18023;SDS011;9137;50.960;3.118;2022-07-18T05:22:22;6.00;;;3.95;;
18023;SDS011;9137;50.960;3.118;2022-07-18T05:24:49;6.20;;;4.15;;
18023;SDS011;9137;50.960;3.118;2022-07-18T05:27:16;7.43;;;3.88;;
18023;SDS011;9137;50.960;3.118;2022-07-18T05:29:43;8.40;;;4.47;;
18023;SDS011;9137;50.960;3.118;2022-07-18T05:32:10;5.22;;;3.50;;
18023;SDS011;9137;50.960;3.118;2022-07-18T05:34:37;5.22;;;3.60;;
18023;SDS011;9137;50.960;3.118;2022-07-18T05:37:04;6.55;;;3.65;;
18023;SDS011;9137;50.960;3.118;2022-07-18T05:39:34;4.80;;;3.72;;
18023;SDS011;9137;50.960;3.118;2022-07-18T05:42:01;5.03;;;3.25;;
18023;SDS011;9137;50.960;3.118;2022-07-18T05:44:28;5.45;;;3.30;;
18023;SDS011;9137;50.960;3.118;2022-07-18T05:46:55;4.13;;;2.92;;
18023;SDS011;9137;50.960;3.118;2022-07-18T05:49:22;6.13;;;3.03;;
18023;SDS011;9137;50.960;3.118;2022-07-18T05:51:49;3.90;;;2.97;;
18023;SDS011;9137;50.960;3.118;2022-07-18T05:54:16;4.47;;;2.70;;
18023;SDS011;9137;50.960;3.118;2022-07-18T05:56:46;4.00;;;2.53;;
18023;SDS011;9137;50.960;3.118;2022-07-18T05:59:14;4.65;;;2.38;;
18023;SDS011;9137;50.960;3.118;2022-07-18T06:01:41;5.63;;;2.17;;
18023;SDS011;9137;50.960;3.118;2022-07-18T06:04:08;5.47;;;2.58;;
18023;SDS011;9137;50.960;3.118;2022-07-18T06:06:35;6.53;;;2.83;;
18023;SDS011;9137;50.960;3.118;2022-07-18T06:09:03;2.10;;;1.90;;
18023;SDS011;9137;50.960;3.118;2022-07-18T06:11:31;4.18;;;2.25;;
18023;SDS011;9137;50.960;3.118;2022-07-18T06:13:59;4.55;;;2.80;;
18023;SDS011;9137;50.960;3.118;2022-07-18T06:16:27;6.22;;;2.33;;
18023;SDS011;9137;50.960;3.118;2022-07-18T06:18:55;3.73;;;2.57;;
18023;SDS011;9137;50.960;3.118;2022-07-18T06:21:22;4.47;;;2.47;;
18023;SDS011;9137;50.960;3.118;2022-07-18T06:23:49;4.13;;;2.70;;
18023;SDS011;9137;50.960;3.118;2022-07-18T06:26:16;5.47;;;2.60;;
18023;SDS011;9137;50.960;3.118;2022-07-18T06:28:43;7.30;;;3.65;;
18023;SDS011;9137;50.960;3.118;2022-07-18T06:31:11;6.55;;;3.20;;
18023;SDS011;9137;50.960;3.118;2022-07-18T06:33:41;5.68;;;2.85;;
18023;SDS011;9137;50.960;3.118;2022-07-18T06:36:08;7.00;;;3.67;;
18023;SDS011;9137;50.960;3.118;2022-07-18T06:38:36;5.10;;;3.08;;
18023;SDS011;9137;50.960;3.118;2022-07-18T06:41:03;4.65;;;3.10;;
18023;SDS011;9137;50.960;3.118;2022-07-18T06:43:30;8.02;;;3.63;;
18023;SDS011;9137;50.960;3.118;2022-07-18T06:45:57;6.53;;;3.53;;
18023;SDS011;9137;50.960;3.118;2022-07-18T06:48:26;3.93;;;3.03;;
18023;SDS011;9137;50.960;3.118;2022-07-18T06:50:57;5.57;;;3.10;;
18023;SDS011;9137;50.960;3.118;2022-07-18T06:53:25;6.07;;;3.60;;
18023;SDS011;9137;50.960;3.118;2022-07-18T06:55:51;9.13;;;4.75;;
18023;SDS011;9137;50.960;3.118;2022-07-18T06:58:18;6.38;;;3.10;;
18023;SDS011;9137;50.960;3.118;2022-07-18T07:00:45;7.00;;;3.70;;
18023;SDS011;9137;50.960;3.118;2022-07-18T07:03:12;5.15;;;2.95;;
18023;SDS011;9137;50.960;3.118;2022-07-18T07:05:40;5.22;;;2.75;;
18023;SDS011;9137;50.960;3.118;2022-07-18T07:08:07;6.15;;;2.53;;
18023;SDS011;9137;50.960;3.118;2022-07-18T07:10:34;4.82;;;2.60;;
18023;SDS011;9137;50.960;3.118;2022-07-18T07:13:03;3.08;;;2.40;;
18023;SDS011;9137;50.960;3.118;2022-07-18T07:15:30;9.73;;;2.55;;
18023;SDS011;9137;50.960;3.118;2022-07-18T07:17:57;4.25;;;2.30;;
18023;SDS011;9137;50.960;3.118;2022-07-18T07:20:24;3.67;;;2.60;;
18023;SDS011;9137;50.960;3.118;2022-07-18T07:22:53;3.45;;;2.13;;
18023;SDS011;9137;50.960;3.118;2022-07-18T07:25:22;5.90;;;2.50;;
18023;SDS011;9137;50.960;3.118;2022-07-18T07:27:50;4.78;;;2.20;;
18023;SDS011;9137;50.960;3.118;2022-07-18T07:30:17;3.00;;;1.90;;
18023;SDS011;9137;50.960;3.118;2022-07-18T07:32:45;5.60;;;2.47;;
18023;SDS011;9137;50.960;3.118;2022-07-18T07:35:13;8.75;;;2.20;;
18023;SDS011;9137;50.960;3.118;2022-07-18T07:37:42;4.80;;;2.30;;
18023;SDS011;9137;50.960;3.118;2022-07-18T07:40:11;3.33;;;2.10;;
18023;SDS011;9137;50.960;3.118;2022-07-18T07:42:39;2.97;;;1.90;;
18023;SDS011;9137;50.960;3.118;2022-07-18T07:45:07;4.22;;;2.28;;
18023;SDS011;9137;50.960;3.118;2022-07-18T07:47:34;6.30;;;1.92;;
18023;SDS011;9137;50.960;3.118;2022-07-18T07:50:02;5.20;;;2.50;;
18023;SDS011;9137;50.960;3.118;2022-07-18T07:52:30;3.15;;;2.00;;
18023;SDS011;9137;50.960;3.118;2022-07-18T07:54:57;3.22;;;1.80;;
18023;SDS011;9137;50.960;3.118;2022-07-18T07:57:26;3.53;;;2.05;;
18023;SDS011;9137;50.960;3.118;2022-07-18T07:59:54;11.35;;;2.13;;
18023;SDS011;9137;50.960;3.118;2022-07-18T08:02:20;5.55;;;2.00;;
18023;SDS011;9137;50.960;3.118;2022-07-18T08:04:47;6.78;;;2.35;;
18023;SDS011;9137;50.960;3.118;2022-07-18T08:07:15;3.53;;;1.65;;
18023;SDS011;9137;50.960;3.118;2022-07-18T08:09:42;5.88;;;1.95;;
18023;SDS011;9137;50.960;3.118;2022-07-18T08:12:09;2.83;;;1.63;;
18023;SDS011;9137;50.960;3.118;2022-07-18T08:14:37;4.60;;;1.75;;
18023;SDS011;9137;50.960;3.118;2022-07-18T08:17:05;4.55;;;2.13;;
18023;SDS011;9137;50.960;3.118;2022-07-18T08:19:32;4.50;;;2.10;;
18023;SDS011;9137;50.960;3.118;2022-07-18T08:21:59;2.92;;;1.88;;
18023;SDS011;9137;50.960;3.118;2022-07-18T08:24:26;5.10;;;2.30;;
18023;SDS011;9137;50.960;3.118;2022-07-18T08:26:53;4.43;;;1.88;;
18023;SDS011;9137;50.960;3.118;2022-07-18T08:29:20;3.83;;;1.85;;
18023;SDS011;9137;50.960;3.118;2022-07-18T08:31:48;5.57;;;2.08;;
18023;SDS011;9137;50.960;3.118;2022-07-18T08:34:15;10.45;;;2.60;;
18023;SDS011;9137;50.960;3.118;2022-07-18T08:36:42;6.53;;;2.10;;
18023;SDS011;9137;50.960;3.118;2022-07-18T08:39:09;4.32;;;1.88;;
18023;SDS011;9137;50.960;3.118;2022-07-18T08:41:36;3.53;;;1.77;;
18023;SDS011;9137;50.960;3.118;2022-07-18T08:44:06;5.82;;;1.88;;
18023;SDS011;9137;50.960;3.118;2022-07-18T08:46:35;2.83;;;1.83;;
18023;SDS011;9137;50.960;3.118;2022-07-18T08:49:06;8.15;;;1.90;;
18023;SDS011;9137;50.960;3.118;2022-07-18T08:51:33;8.23;;;2.53;;
18023;SDS011;9137;50.960;3.118;2022-07-18T08:54:01;5.45;;;1.73;;
18023;SDS011;9137;50.960;3.118;2022-07-18T08:56:28;6.55;;;2.00;;
18023;SDS011;9137;50.960;3.118;2022-07-18T08:58:55;8.43;;;2.10;;
18023;SDS011;9137;50.960;3.118;2022-07-18T09:01:22;4.63;;;1.92;;
18023;SDS011;9137;50.960;3.118;2022-07-18T09:03:49;6.50;;;2.47;;
18023;SDS011;9137;50.960;3.118;2022-07-18T09:06:44;4.05;;;1.88;;
18023;SDS011;9137;50.960;3.118;2022-07-18T09:09:12;2.63;;;1.60;;
18023;SDS011;9137;50.960;3.118;2022-07-18T09:11:50;5.70;;;1.73;;
18023;SDS011;9137;50.960;3.118;2022-07-18T09:14:28;3.72;;;1.98;;
18023;SDS011;9137;50.960;3.118;2022-07-18T09:17:00;4.68;;;1.77;;
18023;SDS011;9137;50.960;3.118;2022-07-18T09:19:29;3.63;;;1.60;;
18023;SDS011;9137;50.960;3.118;2022-07-18T09:24:53;3.85;;;1.48;;
18023;SDS011;9137;50.960;3.118;2022-07-18T09:27:33;3.40;;;1.27;;
18023;SDS011;9137;50.960;3.118;2022-07-18T09:30:21;4.25;;;1.45;;
18023;SDS011;9137;50.960;3.118;2022-07-18T09:32:51;2.38;;;1.13;;
18023;SDS011;9137;50.960;3.118;2022-07-18T09:35:21;2.67;;;1.52;;
18023;SDS011;9137;50.960;3.118;2022-07-18T09:37:55;2.50;;;1.38;;
18023;SDS011;9137;50.960;3.118;2022-07-18T09:40:26;2.43;;;1.20;;
18023;SDS011;9137;50.960;3.118;2022-07-18T09:42:56;2.30;;;1.47;;
18023;SDS011;9137;50.960;3.118;2022-07-18T09:45:25;2.35;;;1.30;;
18023;SDS011;9137;50.960;3.118;2022-07-18T09:47:54;2.90;;;1.50;;
18023;SDS011;9137;50.960;3.118;2022-07-18T09:50:24;2.42;;;1.40;;
18023;SDS011;9137;50.960;3.118;2022-07-18T09:53:05;3.17;;;1.50;;
18023;SDS011;9137;50.960;3.118;2022-07-18T09:55:47;2.90;;;1.60;;
18023;SDS011;9137;50.960;3.118;2022-07-18T09:58:17;2.83;;;1.40;;
18023;SDS011;9137;50.960;3.118;2022-07-18T10:00:46;1.27;;;1.17;;
18023;SDS011;9137;50.960;3.118;2022-07-18T10:03:13;3.13;;;1.55;;
18023;SDS011;9137;50.960;3.118;2022-07-18T10:05:41;1.65;;;1.45;;
18023;SDS011;9137;50.960;3.118;2022-07-18T10:08:11;2.75;;;1.38;;
18023;SDS011;9137;50.960;3.118;2022-07-18T10:10:40;1.85;;;1.30;;
18023;SDS011;9137;50.960;3.118;2022-07-18T10:13:08;3.70;;;1.57;;
18023;SDS011;9137;50.960;3.118;2022-07-18T10:15:36;2.10;;;1.58;;
18023;SDS011;9137;50.960;3.118;2022-07-18T10:18:05;2.88;;;1.63;;
18023;SDS011;9137;50.960;3.118;2022-07-18T10:20:34;2.58;;;1.83;;
18023;SDS011;9137;50.960;3.118;2022-07-18T10:23:06;2.45;;;1.40;;
18023;SDS011;9137;50.960;3.118;2022-07-18T10:25:37;1.35;;;1.20;;
18023;SDS011;9137;50.960;3.118;2022-07-18T10:28:05;3.03;;;1.40;;
18023;SDS011;9137;50.960;3.118;2022-07-18T10:30:34;2.60;;;1.50;;
18023;SDS011;9137;50.960;3.118;2022-07-18T10:33:04;2.50;;;1.70;;
18023;SDS011;9137;50.960;3.118;2022-07-18T10:35:58;4.75;;;1.65;;
18023;SDS011;9137;50.960;3.118;2022-07-18T10:38:27;3.10;;;1.53;;
18023;SDS011;9137;50.960;3.118;2022-07-18T10:41:02;3.10;;;1.48;;
18023;SDS011;9137;50.960;3.118;2022-07-18T10:43:43;2.90;;;1.50;;
18023;SDS011;9137;50.960;3.118;2022-07-18T10:46:12;2.05;;;1.30;;
18023;SDS011;9137;50.960;3.118;2022-07-18T10:48:52;2.00;;;1.67;;
18023;SDS011;9137;50.960;3.118;2022-07-18T10:51:33;2.60;;;1.60;;
18023;SDS011;9137;50.960;3.118;2022-07-18T10:54:07;2.65;;;1.70;;
18023;SDS011;9137;50.960;3.118;2022-07-18T10:59:39;3.20;;;1.40;;
18023;SDS011;9137;50.960;3.118;2022-07-18T11:02:33;4.70;;;1.85;;
18023;SDS011;9137;50.960;3.118;2022-07-18T11:05:02;1.70;;;1.40;;
18023;SDS011;9137;50.960;3.118;2022-07-18T11:13:30;2.70;;;1.80;;
18023;SDS011;9137;50.960;3.118;2022-07-18T11:16:01;5.95;;;1.77;;
18023;SDS011;9137;50.960;3.118;2022-07-18T11:18:30;1.90;;;1.80;;
18023;SDS011;9137;50.960;3.118;2022-07-18T11:20:57;3.25;;;1.80;;
18023;SDS011;9137;50.960;3.118;2022-07-18T11:23:26;4.53;;;1.75;;
18023;SDS011;9137;50.960;3.118;2022-07-18T11:25:55;2.60;;;1.80;;
18023;SDS011;9137;50.960;3.118;2022-07-18T11:28:23;3.78;;;1.42;;
18023;SDS011;9137;50.960;3.118;2022-07-18T11:30:58;3.80;;;1.50;;
18023;SDS011;9137;50.960;3.118;2022-07-18T11:33:27;2.15;;;1.70;;
18023;SDS011;9137;50.960;3.118;2022-07-18T11:36:05;3.47;;;1.83;;
18023;SDS011;9137;50.960;3.118;2022-07-18T11:38:36;3.53;;;1.92;;
18023;SDS011;9137;50.960;3.118;2022-07-18T11:41:05;3.22;;;1.80;;
18023;SDS011;9137;50.960;3.118;2022-07-18T11:43:32;1.88;;;1.40;;
18023;SDS011;9137;50.960;3.118;2022-07-18T11:45:59;4.03;;;1.87;;
18023;SDS011;9137;50.960;3.118;2022-07-18T11:48:31;1.90;;;1.50;;
18023;SDS011;9137;50.960;3.118;2022-07-18T11:50:58;2.42;;;1.92;;
18023;SDS011;9137;50.960;3.118;2022-07-18T11:53:25;4.27;;;1.70;;
18023;SDS011;9137;50.960;3.118;2022-07-18T11:55:54;2.05;;;1.60;;
18023;SDS011;9137;50.960;3.118;2022-07-18T11:58:22;2.90;;;1.83;;
18023;SDS011;9137;50.960;3.118;2022-07-18T12:00:49;3.40;;;1.65;;
18023;SDS011;9137;50.960;3.118;2022-07-18T12:03:16;2.30;;;1.70;;
18023;SDS011;9137;50.960;3.118;2022-07-18T12:05:45;2.57;;;1.83;;
18023;SDS011;9137;50.960;3.118;2022-07-18T12:08:30;3.63;;;1.83;;
18023;SDS011;9137;50.960;3.118;2022-07-18T12:11:03;2.15;;;1.90;;
18023;SDS011;9137;50.960;3.118;2022-07-18T12:18:53;2.38;;;1.70;;
18023;SDS011;9137;50.960;3.118;2022-07-18T12:21:21;3.20;;;1.60;;
18023;SDS011;9137;50.960;3.118;2022-07-18T12:23:48;2.40;;;1.75;;
18023;SDS011;9137;50.960;3.118;2022-07-18T12:26:29;2.58;;;2.00;;
18023;SDS011;9137;50.960;3.118;2022-07-18T12:29:07;4.60;;;1.60;;
18023;SDS011;9137;50.960;3.118;2022-07-18T12:31:38;2.25;;;1.67;;
18023;SDS011;9137;50.960;3.118;2022-07-18T12:34:10;3.92;;;1.80;;
18023;SDS011;9137;50.960;3.118;2022-07-18T12:36:51;3.70;;;2.05;;
18023;SDS011;9137;50.960;3.118;2022-07-18T12:39:25;3.28;;;1.60;;
18023;SDS011;9137;50.960;3.118;2022-07-18T12:41:55;2.97;;;1.50;;
18023;SDS011;9137;50.960;3.118;2022-07-18T12:44:22;3.55;;;1.48;;
18023;SDS011;9137;50.960;3.118;2022-07-18T12:46:49;1.70;;;1.60;;
18023;SDS011;9137;50.960;3.118;2022-07-18T12:49:17;1.80;;;1.70;;
18023;SDS011;9137;50.960;3.118;2022-07-18T12:51:44;1.65;;;1.55;;
18023;SDS011;9137;50.960;3.118;2022-07-18T12:54:11;1.77;;;1.67;;
18023;SDS011;9137;50.960;3.118;2022-07-18T12:56:37;3.15;;;1.58;;
18023;SDS011;9137;50.960;3.118;2022-07-18T12:59:06;3.22;;;1.70;;
18023;SDS011;9137;50.960;3.118;2022-07-18T13:01:33;1.73;;;1.60;;
18023;SDS011;9137;50.960;3.118;2022-07-18T13:04:00;1.80;;;1.55;;
18023;SDS011;9137;50.960;3.118;2022-07-18T13:06:28;3.90;;;1.50;;
18023;SDS011;9137;50.960;3.118;2022-07-18T13:08:55;3.47;;;1.80;;
18023;SDS011;9137;50.960;3.118;2022-07-18T13:11:22;4.13;;;2.20;;
18023;SDS011;9137;50.960;3.118;2022-07-18T13:13:49;1.70;;;1.60;;
18023;SDS011;9137;50.960;3.118;2022-07-18T13:16:17;2.78;;;1.40;;
18023;SDS011;9137;50.960;3.118;2022-07-18T13:18:44;2.25;;;1.55;;
18023;SDS011;9137;50.960;3.118;2022-07-18T13:21:11;3.65;;;1.63;;
18023;SDS011;9137;50.960;3.118;2022-07-18T13:23:38;3.58;;;1.70;;
18023;SDS011;9137;50.960;3.118;2022-07-18T13:26:05;2.58;;;1.50;;
18023;SDS011;9137;50.960;3.118;2022-07-18T13:28:32;4.40;;;1.57;;
18023;SDS011;9137;50.960;3.118;2022-07-18T13:30:59;2.20;;;1.70;;
18023;SDS011;9137;50.960;3.118;2022-07-18T13:33:28;1.55;;;1.45;;
18023;SDS011;9137;50.960;3.118;2022-07-18T13:35:54;1.60;;;1.50;;
18023;SDS011;9137;50.960;3.118;2022-07-18T13:38:21;2.28;;;1.70;;
18023;SDS011;9137;50.960;3.118;2022-07-18T13:40:48;3.90;;;1.90;;
18023;SDS011;9137;50.960;3.118;2022-07-18T13:43:17;2.90;;;1.40;;
18023;SDS011;9137;50.960;3.118;2022-07-18T13:45:44;1.92;;;1.55;;
18023;SDS011;9137;50.960;3.118;2022-07-18T13:48:11;5.38;;;1.80;;
18023;SDS011;9137;50.960;3.118;2022-07-18T13:50:39;3.92;;;1.60;;
18023;SDS011;9137;50.960;3.118;2022-07-18T13:53:06;3.55;;;1.80;;
18023;SDS011;9137;50.960;3.118;2022-07-18T13:55:33;1.50;;;1.40;;
18023;SDS011;9137;50.960;3.118;2022-07-18T13:58:00;2.63;;;1.55;;
18023;SDS011;9137;50.960;3.118;2022-07-18T14:00:27;3.92;;;2.35;;
18023;SDS011;9137;50.960;3.118;2022-07-18T14:02:54;3.95;;;1.70;;
18023;SDS011;9137;50.960;3.118;2022-07-18T14:05:21;2.20;;;1.70;;
18023;SDS011;9137;50.960;3.118;2022-07-18T14:07:50;4.22;;;1.65;;
18023;SDS011;9137;50.960;3.118;2022-07-18T14:10:16;4.00;;;1.67;;
18023;SDS011;9137;50.960;3.118;2022-07-18T14:12:43;2.42;;;1.60;;
18023;SDS011;9137;50.960;3.118;2022-07-18T14:15:10;2.88;;;1.63;;
18023;SDS011;9137;50.960;3.118;2022-07-18T14:17:38;3.28;;;1.83;;
18023;SDS011;9137;50.960;3.118;2022-07-18T14:20:06;2.92;;;1.70;;
18023;SDS011;9137;50.960;3.118;2022-07-18T14:22:34;2.90;;;1.42;;
18023;SDS011;9137;50.960;3.118;2022-07-18T14:25:03;1.80;;;1.40;;
18023;SDS011;9137;50.960;3.118;2022-07-18T14:27:31;3.00;;;1.50;;
18023;SDS011;9137;50.960;3.118;2022-07-18T14:29:58;1.85;;;1.65;;
18023;SDS011;9137;50.960;3.118;2022-07-18T14:32:25;1.80;;;1.42;;
18023;SDS011;9137;50.960;3.118;2022-07-18T14:34:52;1.80;;;1.52;;
18023;SDS011;9137;50.960;3.118;2022-07-18T14:37:19;1.98;;;1.60;;
18023;SDS011;9137;50.960;3.118;2022-07-18T14:39:46;2.88;;;1.77;;
18023;SDS011;9137;50.960;3.118;2022-07-18T14:42:14;1.40;;;1.30;;
18023;SDS011;9137;50.960;3.118;2022-07-18T14:44:41;1.50;;;1.40;;
18023;SDS011;9137;50.960;3.118;2022-07-18T14:47:08;1.70;;;1.60;;
18023;SDS011;9137;50.960;3.118;2022-07-18T14:49:35;2.40;;;1.42;;
18023;SDS011;9137;50.960;3.118;2022-07-18T14:52:02;3.60;;;1.50;;
18023;SDS011;9137;50.960;3.118;2022-07-18T14:54:29;2.47;;;1.55;;
18023;SDS011;9137;50.960;3.118;2022-07-18T14:56:56;2.25;;;1.60;;
18023;SDS011;9137;50.960;3.118;2022-07-18T14:59:24;2.90;;;1.92;;
18023;SDS011;9137;50.960;3.118;2022-07-18T15:01:51;3.72;;;1.60;;
18023;SDS011;9137;50.960;3.118;2022-07-18T15:04:19;2.00;;;1.40;;
18023;SDS011;9137;50.960;3.118;2022-07-18T15:06:46;3.45;;;1.50;;
18023;SDS011;9137;50.960;3.118;2022-07-18T15:09:13;2.03;;;1.60;;
18023;SDS011;9137;50.960;3.118;2022-07-18T15:11:40;3.40;;;1.60;;
18023;SDS011;9137;50.960;3.118;2022-07-18T15:14:08;2.03;;;1.52;;
18023;SDS011;9137;50.960;3.118;2022-07-18T15:16:36;2.73;;;1.43;;
18023;SDS011;9137;50.960;3.118;2022-07-18T15:19:04;2.03;;;1.75;;
18023;SDS011;9137;50.960;3.118;2022-07-18T15:21:31;1.93;;;1.40;;
18023;SDS011;9137;50.960;3.118;2022-07-18T15:23:58;2.13;;;1.80;;
18023;SDS011;9137;50.960;3.118;2022-07-18T15:26:25;2.88;;;2.00;;